Station: Perisher Valley

  Atmospheric Gas Attenuation - ITU Rec 676-11   --------------- db/100km ---------------
Date Time Temp RH % AH g/m3 Dew Point Wind Direction Speed kph Gust kph Barometer mB Rainfall Since 9am 24GHz 47GHz 76GHz 122GHz 134GHz 241GHz
22 12:40 18.5 26 4.11 -1.4 15 17 1013.1 0 9.9 18.3 22.0 57.0 41.5 139.4
22 12:30 18.3 23 3.6 -3.2 13 22 1013.1 0 8.9 17.7 20.5 52.9 36.4 121.2
22 12:20 17.7 20 3.02 -5.6 11 17 1013.1 0 7.7 17.1 18.9 48.5 30.8 101.3
22 12:10 18.4 24 3.77 -2.5 11 17 1013.1 0 9.2 17.9 21.0 54.2 38.1 127.2
22 12:00 18.7 29 4.64 0.3 17 20 1013.1 0 11.0 18.9 23.7 61.4 47.0 158.6
22 11:50 18.6 32 5.09 1.6 15 19 1013.1 0 12.0 19.5 25.1 65.3 51.9 175.8
22 11:40 17.8 29 4.4 -0.5 9 13 1013.1 0 10.6 18.8 23.1 60.0 44.9 151.3
22 11:30 18.2 29 4.51 -0.1 11 17 1013.1 0 10.8 18.9 23.4 60.6 45.9 154.7
22 11:20 18.1 25 3.86 -2.3 15 19 1013.1 0 9.4 18.0 21.4 55.2 39.1 130.9
22 11:10 17.8 27 4.1 -1.5 9 13 1013.1 0 9.9 18.4 22.2 57.4 41.8 140.2
22 11:00 17.5 25 3.73 -2.7 13 19 1013.1 0 9.2 18.0 21.1 54.5 38.1 127.1
22 10:50 18.6 29 4.62 0.2 15 17 1013.1 0 11.0 18.9 23.6 61.3 46.8 158.1
22 10:40 18.6 30 4.77 0.7 15 19 1013.1 0 11.3 19.1 24.1 62.6 48.4 163.7
22 10:30 18.6 27 4.3 -0.7 9 19 1013.1 0 10.3 18.5 22.6 58.6 43.5 146.2
22 10:20 18.1 24 3.71 -2.8 9 11 1013.1 0 9.1 17.9 20.9 53.9 37.6 125.5
22 10:10 17.9 18 2.75 -6.8 11 13 1013.1 0 7.1 16.7 18.0 46.3 28.0 91.6
22 10:00 18 19 2.92 -5.9 9 15 1013.1 0 7.5 16.9 18.5 47.6 29.7 97.5
22 09:50 18 22 3.38 -4 9 9 1013.1 0 8.4 17.5 19.9 51.3 34.3 113.7
22 09:40 17.5 19 2.83 -6.4 9 11 1013.1 0 7.3 16.9 18.4 47.1 28.9 94.9
22 09:30 17.8 22 3.34 -4.2 6 9 1013.1 0 8.3 17.4 19.8 51.1 33.9 112.6
22 09:20 17.5 23 3.43 -3.9 7 9 1013.1 0 8.5 17.6 20.2 52.0 35.0 116.2
22 09:10 16.6 22 3.11 -5.2 7 11 1013.1 0 7.9 17.4 19.4 49.9 32.1 105.9
22 09:00 16.6 26 3.67 -3 6 9 1013.1 0 9.1 18.1 21.1 54.6 37.9 126.2
22 08:50 16.1 24 3.29 -4.5 4 6 1013.1 0 8.3 17.7 20.1 51.7 34.1 113.0
22 08:40 16.4 30 4.19 -1.2 4 6 1013.1 0 10.2 18.8 22.9 59.2 43.5 145.9
22 08:30 15.6 28 3.72 -2.8 2 4 1013.1 0 9.2 18.3 21.6 55.7 38.8 129.6
22 08:20 14.9 27 3.44 -3.9 2 4 1013.1 0 8.6 18.1 20.8 53.8 36.2 120.2
22 08:10 13.3 50 5.78 3.3 0 0 1013.1 0 13.6 21.7 29.3 76.3 63.5 216.0
22 08:00 11.8 51 5.37 2 0 2 1013.1 0 12.8 21.4 28.3 73.7 59.7 202.7
22 07:50 9.5 52 4.73 0.1 2 4 1013.1 0 11.5 21.0 26.8 69.6 53.7 181.2
22 07:40 8.8 61 5.31 1.7 0 0 1013.1 0 12.8 22.1 29.1 75.9 61.3 207.7
22 07:30 7.6 64 5.16 1.2 4 6 1013.1 0 12.5 22.1 29.0 75.6 60.3 204.3
22 07:20 6.4 62 4.62 -0.2 4 6 1013.1 0 11.4 21.6 27.4 71.2 54.5 183.5
22 07:10 5.8 58 4.16 -1.8 9 11 1013.1 0 10.4 21.0 25.9 67.1 49.2 164.8
22 07:00 4.4 68 4.44 -1 6 11 1013.1 0 11.0 21.8 27.4 71.2 53.6 180.1
22 06:50 3.6 66 4.09 -2.2 4 4 1013.1 0 10.3 21.4 26.3 68.3 49.7 166.3
22 06:40 2.7 67 3.91 -2.8 0 0 1013.1 0 10.0 21.4 25.9 67.3 48.0 160.2
22 06:30 2.6 67 3.88 -2.9 0 2 1013.1 0 9.9 21.3 25.8 67.0 47.7 159.0
22 06:20 2.3 68 3.86 -3 2 2 1013.1 0 9.9 21.4 25.9 67.1 47.6 158.7
22 06:10 2.5 67 3.86 -3 0 0 1013.1 0 9.9 21.3 25.8 66.9 47.5 158.4
22 06:00 2.7 67 3.91 -2.8 0 0 1013.1 0 10.0 21.4 25.9 67.3 48.0 160.2
22 05:50 2.6 69 4 -2.5 0 2 1013.1 0 10.2 21.5 26.3 68.3 49.2 164.4
22 05:30 3 66 3.93 -2.7 2 4 1013.1 0 10.0 21.3 25.9 67.2 48.1 160.5
22 05:20 2.5 69 3.97 -2.6 4 6 1013.1 0 10.1 21.5 26.2 68.0 48.9 163.3
22 05:10 2.6 69 4 -2.5 0 0 1013.1 0 10.2 21.5 26.3 68.3 49.2 164.4
22 05:00 2.8 68 3.99 -2.5 0 2 1013.1 0 10.1 21.5 26.2 68.0 48.9 163.5
22 04:50 2.8 69 4.05 -2.3 2 4 1013.1 0 10.3 21.6 26.4 68.6 49.7 166.2
22 04:40 2.4 71 4.06 -2.3 2 4 1013.1 0 10.3 21.7 26.6 69.0 50.1 167.5
22 04:30 2.5 69 3.97 -2.6 0 0 1013.1 0 10.1 21.5 26.2 68.0 48.9 163.3
22 04:20 2.4 71 4.06 -2.3 0 0 1013.1 0 10.3 21.7 26.6 69.0 50.1 167.5
22 04:10 2.1 73 4.09 -2.3 2 4 1013.1 0 10.4 21.8 26.8 69.6 50.7 169.5
22 04:00 2.1 72 4.03 -2.4 0 2 1013.1 0 10.2 21.7 26.6 69.0 49.9 166.8
22 03:50 2.1 71 3.98 -2.6 2 2 1013.1 0 10.1 21.6 26.4 68.5 49.3 164.5
22 03:40 2.1 71 3.98 -2.6 0 2 1013.1 0 10.1 21.6 26.4 68.5 49.3 164.5
22 03:30 2.2 70 3.95 -2.7 0 2 1013.1 0 10.1 21.6 26.2 68.1 48.8 163.0
22 03:20 2 72 4.01 -2.5 0 0 1013.1 0 10.2 21.7 26.5 68.9 49.7 166.1
22 03:10 2 71 3.95 -2.7 0 0 1013.1 0 10.1 21.6 26.3 68.3 48.9 163.4
22 03:00 2.1 71 3.98 -2.6 0 0 1013.1 0 10.1 21.6 26.4 68.5 49.3 164.5
22 02:50 1.9 72 3.98 -2.6 0 2 1013.1 0 10.1 21.7 26.4 68.7 49.4 164.9
22 02:40 2.2 71 4 -2.4 0 0 1013.1 0 10.2 21.6 26.4 68.6 49.5 165.2
22 02:30 2.3 74 4.2 -1.8 0 0 1013.1 0 10.6 21.9 27.2 70.6 52.0 174.0
22 02:20 2.3 76 4.31 -1.5 0 0 1013.1 0 10.8 22.1 27.6 71.7 53.4 179.0
22 02:10 2.5 79 4.55 -0.8 0 0 1013.1 0 11.3 22.4 28.5 74.1 56.3 189.5
22 02:00 3 77 4.58 -0.6 4 6 1013.1 0 11.4 22.3 28.4 73.9 56.4 189.7
22 01:50 3.1 89 5.33 1.4 4 6 1013.1 0 13.0 23.5 31.4 81.8 66.2 224.2
22 01:40 3.4 90 5.5 1.9 4 4 1013.1 0 13.4 23.7 31.9 83.4 68.2 231.3
22 01:30 3.8 96 6.03 3.2 4 6 1013.1 0 14.5 24.5 33.9 88.7 75.0 255.3
22 01:20 4.1 99 6.34 3.9 2 4 1013.1 0 15.2 24.9 35.1 91.9 79.0 269.2
22 01:10 4.2 100 6.45 4.2 4 6 1013.1 0 15.4 25.1 35.5 93.0 80.4 274.2
22 01:00 4.7 100 6.67 4.7 2 4 1013.1 0 15.8 25.3 36.2 94.8 82.9 283.1
22 00:50 5.4 100 6.98 5.4 2 2 1013.1 0 16.5 25.6 37.2 97.5 86.5 295.6
22 00:40 5.6 99 7 5.4 4 4 1013.1 0 16.5 25.6 37.2 97.4 86.5 295.8
22 00:30 6 100 7.26 6 2 4 1013.1 0 17.1 25.9 38.1 99.9 89.7 307.0
22 00:20 7.3 100 7.9 7.3 2 2 1013.1 0 18.4 26.7 40.2 105.4 97.1 333.0
22 00:10 7.4 100 7.96 7.4 2 4 1013.1 0 18.5 26.7 40.4 106.0 97.8 335.6
22 00:00 7.5 100 8.01 7.5 2 6 1013.1 0 18.6 26.8 40.6 106.4 98.4 337.6
21 23:50 7.1 100 7.8 7.1 4 4 1013.1 0 18.2 26.5 39.9 104.6 95.9 329.0
21 23:40 7.1 100 7.8 7.1 0 2 1013.1 0 18.2 26.5 39.9 104.6 95.9 329.0
21 23:30 6.7 98 7.45 6.4 0 2 1013.1 0 17.4 26.1 38.6 101.1 91.5 313.5
21 23:20 7 95 7.36 6.2 2 2 1013.1 0 17.2 25.8 38.0 99.7 89.9 307.9
21 23:10 8.2 100 8.38 8.2 0 0 1013.1 0 19.4 27.2 41.8 109.7 102.7 352.8
21 23:00 8.5 100 8.54 8.5 0 2 1013.1 0 19.7 27.4 42.3 111.1 104.6 359.3
21 22:50 8.7 100 8.65 8.7 0 0 1013.1 0 19.9 27.5 42.7 112.1 105.8 363.8
21 22:40 8.7 100 8.65 8.7 2 2 1013.1 0 19.9 27.5 42.7 112.1 105.8 363.8
21 22:30 8.6 100 8.6 8.6 4 7 1013.1 0 19.8 27.5 42.5 111.6 105.3 361.8
21 22:20 8.7 100 8.65 8.7 4 6 1013.1 0 19.9 27.5 42.7 112.1 105.8 363.8
21 22:10 8.8 100 8.71 8.8 2 4 1013.1 0 20.1 27.6 42.9 112.6 106.6 366.4
21 22:00 8.8 100 8.71 8.8 4 7 1013.1 0 20.1 27.6 42.9 112.6 106.6 366.4
21 21:50 8.7 100 8.65 8.7 6 6 1013.1 0 19.9 27.5 42.7 112.1 105.8 363.8
21 21:40 8.9 100 8.76 8.9 7 9 1013.1 0 20.2 27.6 43.0 113.0 107.1 368.4
21 21:30 9.1 100 8.88 9.1 9 13 1013.1 0 20.4 27.8 43.4 114.1 108.6 373.4
21 21:20 8.6 97 8.34 8.1 7 11 1013.1 0 19.3 27.0 41.4 108.7 101.6 349.0
21 21:10 8.5 91 7.77 7.1 2 4 1013.1 0 18.1 26.1 39.0 102.4 93.8 321.6
21 21:00 9 93 8.2 8 7 7 1013.1 0 19.0 26.6 40.6 106.5 99.1 340.3
21 20:50 9.4 93 8.41 8.3 9 9 1013.1 0 19.4 26.9 41.3 108.3 101.5 348.8
21 20:40 9.5 88 8.01 7.7 7 7 1013.1 0 18.5 26.2 39.5 103.7 95.9 329.0
21 20:30 9.7 87 8.02 7.6 6 7 1013.1 0 18.5 26.1 39.5 103.6 95.7 328.6
21 20:20 10.4 82 7.9 7.4 6 7 1013.1 0 18.2 25.7 38.6 101.3 93.3 320.0
21 20:10 11 80 8.01 7.8 11 15 1013.1 0 18.5 25.7 38.8 101.7 94.0 322.7
21 20:00 11.4 79 8.11 7.9 11 17 1013.1 0 18.7 25.8 39.0 102.3 94.9 325.8

Last Refresh: 22-Jan-2022 12:14:37

Bureau of Meteorology